Gran Canaria Airport
GCLP : now visible

Airfield :











YOU CAN JOIN US ON...

 
LOGIN :

Register | Disclaimer

   EN    FR    IT 

 









Legend :    VFR   Marginal VFR   IFR   Intensive IFR   Very Intensive IFR
Visi :
Ceiling :
>= 8 km
>= 3000ft
5 to 8 km
1000 to 3000 ft
1500m to 5 km
500 to 1000 ft
800 to 1500m
200 to 500 ft
< 800m
< 200 ft
Symbols :   Thunderstorms  Fog  Heavy snow  Heavy precipitations  Wind > 20 kt







- Airport Elevation : 78 ft
- IATA code : LPA


GCLP - Gran Canaria

CURRENT METAR :
  • 161830Z 03013KT 9999 FEW030 22/15 Q1020 NOSIG

EXPIRED METARs :
  • 161800Z 03013KT 360V060 9999 FEW030 22/15 Q1020 NOSIG
  • 161730Z 02013KT 350V050 9999 FEW030 22/14 Q1020 NOSIG
  • 161700Z 03013KT 9999 FEW030 22/15 Q1020 NOSIG
  • 161630Z 05013KT 9999 FEW030 23/15 Q1020 NOSIG
  • 161600Z 05012KT 020V080 9999 FEW030 23/15 Q1020 NOSIG

TAF TAF GCLP
Valid from the 16 at 15:00 until the 17 at 15:00 UTC


161400Z 1615/1715 04010KT 9999 BKN035 TX25/1714Z TN18/1706Z
BECMG 1620/1622 34007KT
BECMG 1708/1710 08010KT
GCCC FIR / Europe



MET'MAP, your aeronautical weather chart ! - Copyright ORBIFLY December 2007 - Disclaimer

ORBIFLY MET'MAP TEAM :

Programming & Development : Alexandra Zaïnal
Concept & Development : Baudouin d'Aumeries
Co-Development & Prog : Marc-Olivier Méhu
Technical & hardware support : Manuel Goepfert

Contact : metmap@orbifly.com




SOURCES & CREDITS :

   NOAA       Earth
Advisory